sensor_id;sensor_type;location;lat;lon;timestamp;temperature;humidity
66328;DHT22;53133;52.862;6.602;2023-04-28T00:00:01;8.30;99.90
66328;DHT22;53133;52.862;6.602;2023-04-28T00:02:30;8.30;99.90
66328;DHT22;53133;52.862;6.602;2023-04-28T00:04:55;8.30;99.90
66328;DHT22;53133;52.862;6.602;2023-04-28T00:07:22;8.30;99.90
66328;DHT22;53133;52.862;6.602;2023-04-28T00:09:48;8.40;99.90
66328;DHT22;53133;52.862;6.602;2023-04-28T00:12:13;8.40;99.90
66328;DHT22;53133;52.862;6.602;2023-04-28T00:14:39;8.30;99.90
66328;DHT22;53133;52.862;6.602;2023-04-28T00:17:05;8.30;99.90
66328;DHT22;53133;52.862;6.602;2023-04-28T00:19:31;8.30;99.90
66328;DHT22;53133;52.862;6.602;2023-04-28T00:21:56;8.30;99.90
66328;DHT22;53133;52.862;6.602;2023-04-28T00:24:22;8.30;99.90
66328;DHT22;53133;52.862;6.602;2023-04-28T00:26:48;8.30;99.90
66328;DHT22;53133;52.862;6.602;2023-04-28T00:29:14;8.30;99.90
66328;DHT22;53133;52.862;6.602;2023-04-28T00:31:39;8.30;99.90
66328;DHT22;53133;52.862;6.602;2023-04-28T00:34:05;8.20;99.90
66328;DHT22;53133;52.862;6.602;2023-04-28T00:36:30;8.20;99.90
66328;DHT22;53133;52.862;6.602;2023-04-28T00:38:58;8.20;99.90
66328;DHT22;53133;52.862;6.602;2023-04-28T00:41:23;8.20;99.90
66328;DHT22;53133;52.862;6.602;2023-04-28T00:43:49;8.10;99.90
66328;DHT22;53133;52.862;6.602;2023-04-28T00:46:24;8.10;99.90
66328;DHT22;53133;52.862;6.602;2023-04-28T00:48:51;8.10;99.90
66328;DHT22;53133;52.862;6.602;2023-04-28T00:51:16;8.10;99.90
66328;DHT22;53133;52.862;6.602;2023-04-28T00:53:43;8.10;99.90
66328;DHT22;53133;52.862;6.602;2023-04-28T00:56:09;8.10;99.90
66328;DHT22;53133;52.862;6.602;2023-04-28T00:58:34;8.10;99.90
66328;DHT22;53133;52.862;6.602;2023-04-28T01:01:04;8.10;99.90
66328;DHT22;53133;52.862;6.602;2023-04-28T01:03:33;8.00;99.90
66328;DHT22;53133;52.862;6.602;2023-04-28T01:05:59;8.00;99.90
66328;DHT22;53133;52.862;6.602;2023-04-28T01:08:30;8.00;99.90
66328;DHT22;53133;52.862;6.602;2023-04-28T01:10:55;8.10;99.90
66328;DHT22;53133;52.862;6.602;2023-04-28T01:13:21;8.00;99.90
66328;DHT22;53133;52.862;6.602;2023-04-28T01:15:47;8.00;99.90
66328;DHT22;53133;52.862;6.602;2023-04-28T01:18:13;8.00;99.90
66328;DHT22;53133;52.862;6.602;2023-04-28T01:20:40;8.00;99.90
66328;DHT22;53133;52.862;6.602;2023-04-28T01:23:14;8.00;99.90
66328;DHT22;53133;52.862;6.602;2023-04-28T01:25:41;8.00;99.90
66328;DHT22;53133;52.862;6.602;2023-04-28T01:28:08;8.00;99.90
66328;DHT22;53133;52.862;6.602;2023-04-28T01:30:34;8.00;99.90
66328;DHT22;53133;52.862;6.602;2023-04-28T01:33:00;8.00;99.90
66328;DHT22;53133;52.862;6.602;2023-04-28T01:35:26;8.00;99.90
66328;DHT22;53133;52.862;6.602;2023-04-28T01:37:51;8.00;99.90
66328;DHT22;53133;52.862;6.602;2023-04-28T01:40:17;8.00;99.90
66328;DHT22;53133;52.862;6.602;2023-04-28T01:42:43;8.00;99.90
66328;DHT22;53133;52.862;6.602;2023-04-28T01:45:09;8.00;99.90
66328;DHT22;53133;52.862;6.602;2023-04-28T01:47:35;8.00;99.90
66328;DHT22;53133;52.862;6.602;2023-04-28T01:50:00;8.00;99.90
66328;DHT22;53133;52.862;6.602;2023-04-28T01:52:26;8.00;99.90
66328;DHT22;53133;52.862;6.602;2023-04-28T01:54:52;8.00;99.90
66328;DHT22;53133;52.862;6.602;2023-04-28T01:57:18;8.00;99.90
66328;DHT22;53133;52.862;6.602;2023-04-28T01:59:44;8.00;99.90
66328;DHT22;53133;52.862;6.602;2023-04-28T02:02:10;8.00;99.90
66328;DHT22;53133;52.862;6.602;2023-04-28T02:04:38;8.00;99.90
66328;DHT22;53133;52.862;6.602;2023-04-28T02:07:05;8.00;99.90
66328;DHT22;53133;52.862;6.602;2023-04-28T02:09:32;8.00;99.90
66328;DHT22;53133;52.862;6.602;2023-04-28T02:11:57;8.10;99.90
66328;DHT22;53133;52.862;6.602;2023-04-28T02:14:24;8.00;99.90
66328;DHT22;53133;52.862;6.602;2023-04-28T02:16:50;8.00;99.90
66328;DHT22;53133;52.862;6.602;2023-04-28T02:19:15;8.00;99.90
66328;DHT22;53133;52.862;6.602;2023-04-28T02:21:41;8.00;99.90
66328;DHT22;53133;52.862;6.602;2023-04-28T02:24:07;8.00;99.90
66328;DHT22;53133;52.862;6.602;2023-04-28T02:26:33;8.00;99.90
66328;DHT22;53133;52.862;6.602;2023-04-28T02:28:59;8.00;99.90
66328;DHT22;53133;52.862;6.602;2023-04-28T02:31:25;7.90;99.90
66328;DHT22;53133;52.862;6.602;2023-04-28T02:33:51;7.90;99.90
66328;DHT22;53133;52.862;6.602;2023-04-28T02:36:17;7.90;99.90
66328;DHT22;53133;52.862;6.602;2023-04-28T02:38:43;7.90;99.90
66328;DHT22;53133;52.862;6.602;2023-04-28T02:41:09;7.90;99.90
66328;DHT22;53133;52.862;6.602;2023-04-28T02:43:35;7.90;99.90
66328;DHT22;53133;52.862;6.602;2023-04-28T02:46:04;7.90;99.90
66328;DHT22;53133;52.862;6.602;2023-04-28T02:48:30;7.80;99.90
66328;DHT22;53133;52.862;6.602;2023-04-28T02:50:57;7.80;99.90
66328;DHT22;53133;52.862;6.602;2023-04-28T02:53:23;7.80;99.90
66328;DHT22;53133;52.862;6.602;2023-04-28T02:55:48;7.80;99.90
66328;DHT22;53133;52.862;6.602;2023-04-28T02:58:14;7.80;99.90
66328;DHT22;53133;52.862;6.602;2023-04-28T03:00:40;7.80;99.90
66328;DHT22;53133;52.862;6.602;2023-04-28T03:03:05;7.70;99.90
66328;DHT22;53133;52.862;6.602;2023-04-28T03:05:31;7.70;99.90
66328;DHT22;53133;52.862;6.602;2023-04-28T03:07:57;7.70;99.90
66328;DHT22;53133;52.862;6.602;2023-04-28T03:10:23;7.70;99.90
66328;DHT22;53133;52.862;6.602;2023-04-28T03:12:49;7.70;99.90
66328;DHT22;53133;52.862;6.602;2023-04-28T03:15:15;7.70;99.90
66328;DHT22;53133;52.862;6.602;2023-04-28T03:17:40;7.70;99.90
66328;DHT22;53133;52.862;6.602;2023-04-28T03:20:07;7.70;99.90
66328;DHT22;53133;52.862;6.602;2023-04-28T03:22:33;7.70;99.90
66328;DHT22;53133;52.862;6.602;2023-04-28T03:24:59;7.70;99.90
66328;DHT22;53133;52.862;6.602;2023-04-28T03:27:25;7.70;99.90
66328;DHT22;53133;52.862;6.602;2023-04-28T03:29:51;7.70;99.90
66328;DHT22;53133;52.862;6.602;2023-04-28T03:32:16;7.70;99.90
66328;DHT22;53133;52.862;6.602;2023-04-28T03:34:42;7.70;99.90
66328;DHT22;53133;52.862;6.602;2023-04-28T03:37:07;7.70;99.90
66328;DHT22;53133;52.862;6.602;2023-04-28T03:39:33;7.70;99.90
66328;DHT22;53133;52.862;6.602;2023-04-28T03:41:59;7.70;99.90
66328;DHT22;53133;52.862;6.602;2023-04-28T03:44:25;7.70;99.90
66328;DHT22;53133;52.862;6.602;2023-04-28T03:46:51;7.70;99.90
66328;DHT22;53133;52.862;6.602;2023-04-28T03:49:16;7.70;99.90
66328;DHT22;53133;52.862;6.602;2023-04-28T03:51:42;7.60;99.90
66328;DHT22;53133;52.862;6.602;2023-04-28T03:54:07;7.60;99.90
66328;DHT22;53133;52.862;6.602;2023-04-28T03:56:33;7.60;99.90
66328;DHT22;53133;52.862;6.602;2023-04-28T03:58:59;7.60;99.90
66328;DHT22;53133;52.862;6.602;2023-04-28T04:01:25;7.60;99.90
66328;DHT22;53133;52.862;6.602;2023-04-28T04:03:50;7.60;99.90
66328;DHT22;53133;52.862;6.602;2023-04-28T04:06:16;7.60;99.90
66328;DHT22;53133;52.862;6.602;2023-04-28T04:08:42;7.60;99.90
66328;DHT22;53133;52.862;6.602;2023-04-28T04:11:07;7.60;99.90
66328;DHT22;53133;52.862;6.602;2023-04-28T04:13:33;7.60;99.90
66328;DHT22;53133;52.862;6.602;2023-04-28T04:15:59;7.60;99.90
66328;DHT22;53133;52.862;6.602;2023-04-28T04:18:25;7.60;99.90
66328;DHT22;53133;52.862;6.602;2023-04-28T04:20:51;7.70;99.90
66328;DHT22;53133;52.862;6.602;2023-04-28T04:23:20;7.70;99.90
66328;DHT22;53133;52.862;6.602;2023-04-28T04:25:46;7.60;99.90
66328;DHT22;53133;52.862;6.602;2023-04-28T04:28:11;7.70;99.90
66328;DHT22;53133;52.862;6.602;2023-04-28T04:30:37;7.70;99.90
66328;DHT22;53133;52.862;6.602;2023-04-28T04:33:02;7.70;99.90
66328;DHT22;53133;52.862;6.602;2023-04-28T04:35:28;7.70;99.90
66328;DHT22;53133;52.862;6.602;2023-04-28T04:37:54;7.70;99.90
66328;DHT22;53133;52.862;6.602;2023-04-28T04:40:20;7.70;99.90
66328;DHT22;53133;52.862;6.602;2023-04-28T04:42:45;7.70;99.90
66328;DHT22;53133;52.862;6.602;2023-04-28T04:45:11;7.70;99.90
66328;DHT22;53133;52.862;6.602;2023-04-28T04:47:37;7.70;99.90
66328;DHT22;53133;52.862;6.602;2023-04-28T04:50:02;7.70;99.90
66328;DHT22;53133;52.862;6.602;2023-04-28T04:52:28;7.70;99.90
66328;DHT22;53133;52.862;6.602;2023-04-28T04:54:53;7.70;99.90
66328;DHT22;53133;52.862;6.602;2023-04-28T04:57:20;7.70;99.90
66328;DHT22;53133;52.862;6.602;2023-04-28T04:59:46;7.70;99.90
66328;DHT22;53133;52.862;6.602;2023-04-28T05:02:12;7.70;99.90
66328;DHT22;53133;52.862;6.602;2023-04-28T05:04:37;7.70;99.90
66328;DHT22;53133;52.862;6.602;2023-04-28T05:07:03;7.70;99.90
66328;DHT22;53133;52.862;6.602;2023-04-28T05:09:28;7.70;99.90
66328;DHT22;53133;52.862;6.602;2023-04-28T05:11:55;7.70;99.90
66328;DHT22;53133;52.862;6.602;2023-04-28T05:14:21;7.70;99.90
66328;DHT22;53133;52.862;6.602;2023-04-28T05:16:46;7.70;99.90
66328;DHT22;53133;52.862;6.602;2023-04-28T05:19:12;7.70;99.90
66328;DHT22;53133;52.862;6.602;2023-04-28T05:21:37;7.70;99.90
66328;DHT22;53133;52.862;6.602;2023-04-28T05:24:03;7.70;99.90
66328;DHT22;53133;52.862;6.602;2023-04-28T05:26:29;7.70;99.90
66328;DHT22;53133;52.862;6.602;2023-04-28T05:28:54;7.70;99.90
66328;DHT22;53133;52.862;6.602;2023-04-28T05:31:20;7.80;99.90
66328;DHT22;53133;52.862;6.602;2023-04-28T05:33:45;7.80;99.90
66328;DHT22;53133;52.862;6.602;2023-04-28T05:36:11;7.80;99.90
66328;DHT22;53133;52.862;6.602;2023-04-28T05:38:37;7.80;99.90
66328;DHT22;53133;52.862;6.602;2023-04-28T05:41:03;7.90;99.90
66328;DHT22;53133;52.862;6.602;2023-04-28T05:43:28;7.90;99.90
66328;DHT22;53133;52.862;6.602;2023-04-28T05:45:54;7.90;99.90
66328;DHT22;53133;52.862;6.602;2023-04-28T05:48:20;7.90;99.90
66328;DHT22;53133;52.862;6.602;2023-04-28T05:50:45;8.00;99.90
66328;DHT22;53133;52.862;6.602;2023-04-28T05:53:11;8.00;99.90
66328;DHT22;53133;52.862;6.602;2023-04-28T05:55:37;8.00;99.90
66328;DHT22;53133;52.862;6.602;2023-04-28T05:58:03;8.10;99.90
66328;DHT22;53133;52.862;6.602;2023-04-28T06:00:28;8.10;99.90
66328;DHT22;53133;52.862;6.602;2023-04-28T06:02:54;8.10;99.90
66328;DHT22;53133;52.862;6.602;2023-04-28T06:05:20;8.10;99.90
66328;DHT22;53133;52.862;6.602;2023-04-28T06:07:45;8.10;99.90
66328;DHT22;53133;52.862;6.602;2023-04-28T06:10:11;8.20;99.90
66328;DHT22;53133;52.862;6.602;2023-04-28T06:12:37;8.20;99.90
66328;DHT22;53133;52.862;6.602;2023-04-28T06:15:04;8.20;99.90
66328;DHT22;53133;52.862;6.602;2023-04-28T06:17:30;8.20;99.90
66328;DHT22;53133;52.862;6.602;2023-04-28T06:19:57;8.10;99.90
66328;DHT22;53133;52.862;6.602;2023-04-28T06:22:24;8.20;99.90
66328;DHT22;53133;52.862;6.602;2023-04-28T06:24:49;8.20;99.90
66328;DHT22;53133;52.862;6.602;2023-04-28T06:27:15;8.20;99.90
66328;DHT22;53133;52.862;6.602;2023-04-28T06:29:41;8.20;99.90
66328;DHT22;53133;52.862;6.602;2023-04-28T06:32:06;8.20;99.90
66328;DHT22;53133;52.862;6.602;2023-04-28T06:34:32;8.20;99.90
66328;DHT22;53133;52.862;6.602;2023-04-28T06:36:58;8.20;99.90
66328;DHT22;53133;52.862;6.602;2023-04-28T06:39:24;8.20;99.90
66328;DHT22;53133;52.862;6.602;2023-04-28T06:41:49;8.20;99.90
66328;DHT22;53133;52.862;6.602;2023-04-28T06:44:15;8.20;99.90
66328;DHT22;53133;52.862;6.602;2023-04-28T06:46:40;8.20;99.90
66328;DHT22;53133;52.862;6.602;2023-04-28T06:49:06;8.30;99.90
66328;DHT22;53133;52.862;6.602;2023-04-28T06:51:32;8.30;99.90
66328;DHT22;53133;52.862;6.602;2023-04-28T06:53:59;8.20;99.90
66328;DHT22;53133;52.862;6.602;2023-04-28T06:56:24;8.30;99.90
66328;DHT22;53133;52.862;6.602;2023-04-28T06:58:50;8.30;99.90
66328;DHT22;53133;52.862;6.602;2023-04-28T07:01:16;8.30;99.90
66328;DHT22;53133;52.862;6.602;2023-04-28T07:03:42;8.30;99.90
66328;DHT22;53133;52.862;6.602;2023-04-28T07:06:08;8.40;99.90
66328;DHT22;53133;52.862;6.602;2023-04-28T07:08:34;8.40;99.90
66328;DHT22;53133;52.862;6.602;2023-04-28T07:11:00;8.40;99.90
66328;DHT22;53133;52.862;6.602;2023-04-28T07:13:31;8.50;99.90
66328;DHT22;53133;52.862;6.602;2023-04-28T07:15:57;8.50;99.90
66328;DHT22;53133;52.862;6.602;2023-04-28T07:18:23;8.60;99.90
66328;DHT22;53133;52.862;6.602;2023-04-28T07:20:49;8.60;99.90
66328;DHT22;53133;52.862;6.602;2023-04-28T07:23:15;8.70;99.90
66328;DHT22;53133;52.862;6.602;2023-04-28T07:25:41;8.70;99.90
66328;DHT22;53133;52.862;6.602;2023-04-28T07:28:07;8.70;99.90
66328;DHT22;53133;52.862;6.602;2023-04-28T07:30:33;8.80;99.90
66328;DHT22;53133;52.862;6.602;2023-04-28T07:32:59;8.70;99.90
66328;DHT22;53133;52.862;6.602;2023-04-28T07:35:25;8.80;99.90
66328;DHT22;53133;52.862;6.602;2023-04-28T07:37:51;8.80;99.90
66328;DHT22;53133;52.862;6.602;2023-04-28T07:40:17;8.80;99.90
66328;DHT22;53133;52.862;6.602;2023-04-28T07:42:43;8.90;99.90
66328;DHT22;53133;52.862;6.602;2023-04-28T07:45:09;8.90;99.90
66328;DHT22;53133;52.862;6.602;2023-04-28T07:47:35;8.90;99.90
66328;DHT22;53133;52.862;6.602;2023-04-28T07:50:03;9.00;99.90
66328;DHT22;53133;52.862;6.602;2023-04-28T07:52:31;9.00;99.90
66328;DHT22;53133;52.862;6.602;2023-04-28T07:54:58;9.10;99.90
66328;DHT22;53133;52.862;6.602;2023-04-28T07:57:23;9.10;99.90
66328;DHT22;53133;52.862;6.602;2023-04-28T07:59:49;9.10;99.90
66328;DHT22;53133;52.862;6.602;2023-04-28T08:02:15;9.20;99.90
66328;DHT22;53133;52.862;6.602;2023-04-28T08:04:40;9.30;99.90
66328;DHT22;53133;52.862;6.602;2023-04-28T08:07:07;9.30;99.90
66328;DHT22;53133;52.862;6.602;2023-04-28T08:09:33;9.40;99.90
66328;DHT22;53133;52.862;6.602;2023-04-28T08:12:00;9.40;99.90
66328;DHT22;53133;52.862;6.602;2023-04-28T08:14:26;9.50;99.90
66328;DHT22;53133;52.862;6.602;2023-04-28T08:16:52;9.50;99.90
66328;DHT22;53133;52.862;6.602;2023-04-28T08:19:18;9.60;99.90
66328;DHT22;53133;52.862;6.602;2023-04-28T08:21:44;9.60;99.90
66328;DHT22;53133;52.862;6.602;2023-04-28T08:24:10;9.60;99.90
66328;DHT22;53133;52.862;6.602;2023-04-28T08:26:36;9.60;99.90
66328;DHT22;53133;52.862;6.602;2023-04-28T08:29:03;9.70;99.90
66328;DHT22;53133;52.862;6.602;2023-04-28T08:31:28;9.70;99.90
66328;DHT22;53133;52.862;6.602;2023-04-28T08:33:54;9.80;99.90
66328;DHT22;53133;52.862;6.602;2023-04-28T08:36:19;9.80;99.90
66328;DHT22;53133;52.862;6.602;2023-04-28T08:38:45;9.80;99.90
66328;DHT22;53133;52.862;6.602;2023-04-28T08:41:14;9.80;99.90
66328;DHT22;53133;52.862;6.602;2023-04-28T08:43:40;9.80;99.90
66328;DHT22;53133;52.862;6.602;2023-04-28T08:46:08;9.80;99.90
66328;DHT22;53133;52.862;6.602;2023-04-28T08:48:43;9.80;99.90
66328;DHT22;53133;52.862;6.602;2023-04-28T08:51:31;9.80;99.90
66328;DHT22;53133;52.862;6.602;2023-04-28T08:53:58;9.80;99.90
66328;DHT22;53133;52.862;6.602;2023-04-28T08:56:26;9.80;99.90
66328;DHT22;53133;52.862;6.602;2023-04-28T08:58:53;9.90;99.90
66328;DHT22;53133;52.862;6.602;2023-04-28T09:01:19;9.90;99.90
66328;DHT22;53133;52.862;6.602;2023-04-28T09:03:44;10.00;99.90
66328;DHT22;53133;52.862;6.602;2023-04-28T09:06:11;10.00;99.90
66328;DHT22;53133;52.862;6.602;2023-04-28T09:08:40;10.00;99.90
66328;DHT22;53133;52.862;6.602;2023-04-28T09:11:10;10.10;99.90
66328;DHT22;53133;52.862;6.602;2023-04-28T09:13:38;10.20;99.90
66328;DHT22;53133;52.862;6.602;2023-04-28T09:16:04;10.30;99.90
66328;DHT22;53133;52.862;6.602;2023-04-28T09:18:31;10.30;99.90
66328;DHT22;53133;52.862;6.602;2023-04-28T09:21:08;10.40;99.90
66328;DHT22;53133;52.862;6.602;2023-04-28T09:23:47;10.40;99.90
66328;DHT22;53133;52.862;6.602;2023-04-28T09:26:15;10.50;99.90
66328;DHT22;53133;52.862;6.602;2023-04-28T09:28:44;10.60;99.90
66328;DHT22;53133;52.862;6.602;2023-04-28T09:31:22;10.60;99.90
66328;DHT22;53133;52.862;6.602;2023-04-28T09:33:58;10.70;99.90
66328;DHT22;53133;52.862;6.602;2023-04-28T09:36:28;10.80;99.90
66328;DHT22;53133;52.862;6.602;2023-04-28T09:38:57;10.80;99.90
66328;DHT22;53133;52.862;6.602;2023-04-28T09:44:15;11.00;99.90
66328;DHT22;53133;52.862;6.602;2023-04-28T09:46:43;11.10;99.90
66328;DHT22;53133;52.862;6.602;2023-04-28T09:49:09;11.20;99.90
66328;DHT22;53133;52.862;6.602;2023-04-28T09:51:35;11.20;99.90
66328;DHT22;53133;52.862;6.602;2023-04-28T09:54:01;11.30;99.90
66328;DHT22;53133;52.862;6.602;2023-04-28T09:56:28;11.40;99.90
66328;DHT22;53133;52.862;6.602;2023-04-28T09:58:56;11.50;99.90
66328;DHT22;53133;52.862;6.602;2023-04-28T10:01:24;11.50;99.90
66328;DHT22;53133;52.862;6.602;2023-04-28T10:03:52;11.60;99.90
66328;DHT22;53133;52.862;6.602;2023-04-28T10:06:18;11.70;99.90
66328;DHT22;53133;52.862;6.602;2023-04-28T10:08:44;11.70;99.90
66328;DHT22;53133;52.862;6.602;2023-04-28T10:11:15;11.70;99.90
66328;DHT22;53133;52.862;6.602;2023-04-28T10:13:42;11.80;99.90
66328;DHT22;53133;52.862;6.602;2023-04-28T10:16:12;11.80;99.90
66328;DHT22;53133;52.862;6.602;2023-04-28T10:18:39;11.90;99.90
66328;DHT22;53133;52.862;6.602;2023-04-28T10:21:05;12.00;99.90
66328;DHT22;53133;52.862;6.602;2023-04-28T10:26:13;12.00;99.90
66328;DHT22;53133;52.862;6.602;2023-04-28T10:28:50;12.00;99.90
66328;DHT22;53133;52.862;6.602;2023-04-28T10:31:20;12.00;99.90
66328;DHT22;53133;52.862;6.602;2023-04-28T10:33:46;12.00;99.90
66328;DHT22;53133;52.862;6.602;2023-04-28T10:36:50;12.10;99.90
66328;DHT22;53133;52.862;6.602;2023-04-28T10:39:20;12.20;99.90
66328;DHT22;53133;52.862;6.602;2023-04-28T10:41:46;12.20;99.90
66328;DHT22;53133;52.862;6.602;2023-04-28T10:55:33;12.60;99.90
66328;DHT22;53133;52.862;6.602;2023-04-28T11:00:54;12.90;99.90
66328;DHT22;53133;52.862;6.602;2023-04-28T11:06:32;13.00;99.90
66328;DHT22;53133;52.862;6.602;2023-04-28T11:11:37;13.00;99.90
66328;DHT22;53133;52.862;6.602;2023-04-28T11:16:54;13.00;99.90
66328;DHT22;53133;52.862;6.602;2023-04-28T11:19:27;13.00;99.90
66328;DHT22;53133;52.862;6.602;2023-04-28T11:21:54;13.00;99.90
66328;DHT22;53133;52.862;6.602;2023-04-28T11:24:21;13.00;99.90
66328;DHT22;53133;52.862;6.602;2023-04-28T11:26:49;13.00;99.90
66328;DHT22;53133;52.862;6.602;2023-04-28T11:29:15;13.00;99.90
66328;DHT22;53133;52.862;6.602;2023-04-28T11:31:48;13.00;99.90
66328;DHT22;53133;52.862;6.602;2023-04-28T11:34:18;13.00;99.90
66328;DHT22;53133;52.862;6.602;2023-04-28T11:36:44;13.00;99.90
66328;DHT22;53133;52.862;6.602;2023-04-28T11:39:11;13.00;99.90
66328;DHT22;53133;52.862;6.602;2023-04-28T11:44:17;13.00;99.90
66328;DHT22;53133;52.862;6.602;2023-04-28T11:46:44;13.10;99.90
66328;DHT22;53133;52.862;6.602;2023-04-28T11:49:11;13.10;99.90
66328;DHT22;53133;52.862;6.602;2023-04-28T11:51:39;13.10;99.90
66328;DHT22;53133;52.862;6.602;2023-04-28T11:54:06;13.20;99.90
66328;DHT22;53133;52.862;6.602;2023-04-28T11:56:41;13.20;99.90
66328;DHT22;53133;52.862;6.602;2023-04-28T11:59:09;13.30;99.90
66328;DHT22;53133;52.862;6.602;2023-04-28T12:01:47;13.20;99.90
66328;DHT22;53133;52.862;6.602;2023-04-28T12:04:25;13.20;99.90
66328;DHT22;53133;52.862;6.602;2023-04-28T12:07:14;13.20;99.90
66328;DHT22;53133;52.862;6.602;2023-04-28T12:09:45;13.20;99.90
66328;DHT22;53133;52.862;6.602;2023-04-28T12:12:12;13.20;99.90
66328;DHT22;53133;52.862;6.602;2023-04-28T12:17:34;13.20;99.90
66328;DHT22;53133;52.862;6.602;2023-04-28T12:20:03;13.20;99.90
66328;DHT22;53133;52.862;6.602;2023-04-28T12:22:29;13.20;99.90
66328;DHT22;53133;52.862;6.602;2023-04-28T12:25:06;13.20;99.90
66328;DHT22;53133;52.862;6.602;2023-04-28T12:27:33;13.30;99.90
66328;DHT22;53133;52.862;6.602;2023-04-28T12:29:59;13.40;99.90
66328;DHT22;53133;52.862;6.602;2023-04-28T12:32:39;13.40;99.90
66328;DHT22;53133;52.862;6.602;2023-04-28T12:35:06;13.50;99.90
66328;DHT22;53133;52.862;6.602;2023-04-28T12:37:32;13.40;99.90
66328;DHT22;53133;52.862;6.602;2023-04-28T12:39:57;13.40;99.90
66328;DHT22;53133;52.862;6.602;2023-04-28T12:42:23;13.40;99.90
66328;DHT22;53133;52.862;6.602;2023-04-28T12:44:49;13.40;99.90
66328;DHT22;53133;52.862;6.602;2023-04-28T12:47:15;13.40;99.90
66328;DHT22;53133;52.862;6.602;2023-04-28T12:49:42;13.40;99.90
66328;DHT22;53133;52.862;6.602;2023-04-28T12:52:08;13.50;99.90
66328;DHT22;53133;52.862;6.602;2023-04-28T12:54:34;13.50;99.90
66328;DHT22;53133;52.862;6.602;2023-04-28T12:57:01;13.50;99.90
66328;DHT22;53133;52.862;6.602;2023-04-28T12:59:27;13.40;99.90
66328;DHT22;53133;52.862;6.602;2023-04-28T13:01:53;13.40;99.90
66328;DHT22;53133;52.862;6.602;2023-04-28T13:04:20;13.30;99.90
66328;DHT22;53133;52.862;6.602;2023-04-28T13:06:46;13.30;99.90
66328;DHT22;53133;52.862;6.602;2023-04-28T13:09:15;13.20;99.90
66328;DHT22;53133;52.862;6.602;2023-04-28T13:11:41;13.20;99.90
66328;DHT22;53133;52.862;6.602;2023-04-28T13:14:07;13.20;99.90
66328;DHT22;53133;52.862;6.602;2023-04-28T13:16:33;13.10;99.90
66328;DHT22;53133;52.862;6.602;2023-04-28T13:19:00;13.10;99.90
66328;DHT22;53133;52.862;6.602;2023-04-28T13:21:26;13.10;99.90
66328;DHT22;53133;52.862;6.602;2023-04-28T13:23:53;13.10;99.90
66328;DHT22;53133;52.862;6.602;2023-04-28T13:26:22;13.00;99.90
66328;DHT22;53133;52.862;6.602;2023-04-28T13:28:51;13.00;99.90
66328;DHT22;53133;52.862;6.602;2023-04-28T13:31:17;12.90;99.90
66328;DHT22;53133;52.862;6.602;2023-04-28T13:33:43;12.90;99.90
66328;DHT22;53133;52.862;6.602;2023-04-28T13:36:09;12.90;99.90
66328;DHT22;53133;52.862;6.602;2023-04-28T13:38:35;12.90;99.90
66328;DHT22;53133;52.862;6.602;2023-04-28T13:41:01;12.90;99.90
66328;DHT22;53133;52.862;6.602;2023-04-28T13:43:26;12.90;99.90
66328;DHT22;53133;52.862;6.602;2023-04-28T13:45:55;12.90;99.90
66328;DHT22;53133;52.862;6.602;2023-04-28T13:48:21;12.90;99.90
66328;DHT22;53133;52.862;6.602;2023-04-28T13:50:47;12.90;99.90
66328;DHT22;53133;52.862;6.602;2023-04-28T13:53:12;12.90;99.90
66328;DHT22;53133;52.862;6.602;2023-04-28T13:55:38;12.90;99.90
66328;DHT22;53133;52.862;6.602;2023-04-28T13:58:03;13.00;99.90
66328;DHT22;53133;52.862;6.602;2023-04-28T14:00:31;12.90;99.90
66328;DHT22;53133;52.862;6.602;2023-04-28T14:02:58;12.90;99.90
66328;DHT22;53133;52.862;6.602;2023-04-28T14:05:24;12.90;99.90
66328;DHT22;53133;52.862;6.602;2023-04-28T14:07:50;12.90;99.90
66328;DHT22;53133;52.862;6.602;2023-04-28T14:10:16;12.90;99.90
66328;DHT22;53133;52.862;6.602;2023-04-28T14:12:41;12.90;99.90
66328;DHT22;53133;52.862;6.602;2023-04-28T14:15:07;12.90;99.90
66328;DHT22;53133;52.862;6.602;2023-04-28T14:17:33;12.90;99.90
66328;DHT22;53133;52.862;6.602;2023-04-28T14:20:00;13.00;99.90
66328;DHT22;53133;52.862;6.602;2023-04-28T14:22:26;13.00;99.90
66328;DHT22;53133;52.862;6.602;2023-04-28T14:24:52;13.00;99.90
66328;DHT22;53133;52.862;6.602;2023-04-28T14:27:18;13.00;99.90
66328;DHT22;53133;52.862;6.602;2023-04-28T14:29:43;13.00;99.90
66328;DHT22;53133;52.862;6.602;2023-04-28T14:32:15;13.00;99.90
66328;DHT22;53133;52.862;6.602;2023-04-28T14:34:41;13.00;99.90
66328;DHT22;53133;52.862;6.602;2023-04-28T14:37:07;13.00;99.90
66328;DHT22;53133;52.862;6.602;2023-04-28T14:39:33;13.10;99.90
66328;DHT22;53133;52.862;6.602;2023-04-28T14:42:00;13.10;99.90
66328;DHT22;53133;52.862;6.602;2023-04-28T14:44:26;13.10;99.90
66328;DHT22;53133;52.862;6.602;2023-04-28T14:46:52;13.10;99.90
66328;DHT22;53133;52.862;6.602;2023-04-28T14:49:18;13.20;99.90
66328;DHT22;53133;52.862;6.602;2023-04-28T14:51:44;13.20;99.90
66328;DHT22;53133;52.862;6.602;2023-04-28T14:54:10;13.20;99.90
66328;DHT22;53133;52.862;6.602;2023-04-28T14:56:36;13.20;99.90
66328;DHT22;53133;52.862;6.602;2023-04-28T14:59:02;13.20;99.90
66328;DHT22;53133;52.862;6.602;2023-04-28T15:01:28;13.20;99.90
66328;DHT22;53133;52.862;6.602;2023-04-28T15:03:54;13.20;99.90
66328;DHT22;53133;52.862;6.602;2023-04-28T15:06:20;13.30;99.90
66328;DHT22;53133;52.862;6.602;2023-04-28T15:08:46;13.20;99.90
66328;DHT22;53133;52.862;6.602;2023-04-28T15:11:12;13.30;99.90
66328;DHT22;53133;52.862;6.602;2023-04-28T15:13:37;13.30;99.90
66328;DHT22;53133;52.862;6.602;2023-04-28T15:16:03;13.20;99.90
66328;DHT22;53133;52.862;6.602;2023-04-28T15:18:30;13.30;99.90
66328;DHT22;53133;52.862;6.602;2023-04-28T15:20:56;13.30;99.90
66328;DHT22;53133;52.862;6.602;2023-04-28T15:23:21;13.30;99.90
66328;DHT22;53133;52.862;6.602;2023-04-28T15:25:47;13.30;99.90
66328;DHT22;53133;52.862;6.602;2023-04-28T15:28:17;13.30;99.90
66328;DHT22;53133;52.862;6.602;2023-04-28T15:30:42;13.30;99.90
66328;DHT22;53133;52.862;6.602;2023-04-28T15:33:08;13.30;99.90
66328;DHT22;53133;52.862;6.602;2023-04-28T15:35:33;13.30;99.90
66328;DHT22;53133;52.862;6.602;2023-04-28T15:37:59;13.40;99.90
66328;DHT22;53133;52.862;6.602;2023-04-28T15:40:26;13.30;99.90
66328;DHT22;53133;52.862;6.602;2023-04-28T15:42:51;13.30;99.90
66328;DHT22;53133;52.862;6.602;2023-04-28T15:45:21;13.30;99.90
66328;DHT22;53133;52.862;6.602;2023-04-28T15:47:47;13.40;99.90
66328;DHT22;53133;52.862;6.602;2023-04-28T15:50:14;13.30;99.90
66328;DHT22;53133;52.862;6.602;2023-04-28T15:52:41;13.30;99.90
66328;DHT22;53133;52.862;6.602;2023-04-28T15:55:15;13.30;99.90
66328;DHT22;53133;52.862;6.602;2023-04-28T15:57:41;13.40;99.90
66328;DHT22;53133;52.862;6.602;2023-04-28T16:00:08;13.30;99.90
66328;DHT22;53133;52.862;6.602;2023-04-28T16:02:36;13.30;99.90
66328;DHT22;53133;52.862;6.602;2023-04-28T16:05:01;13.30;99.90
66328;DHT22;53133;52.862;6.602;2023-04-28T16:07:29;13.20;99.90
66328;DHT22;53133;52.862;6.602;2023-04-28T16:10:05;13.20;99.90